Time;durP1;ratioP1;P1;durP2;ratioP2;P2;SDS_P1;SDS_P2;PMS_P1;PMS_P2;Temp;Humidity;BMP_temperature;BMP_pressure;BME280_temperature;BME280_humidity;BME280_pressure;Samples;Min_cycle;Max_cycle;Signal;HPM_P1;HPM_P2
2022/05/06 00:00:31;;;;;;;0.67;0.67;;;12.00;99.90;11.70;102433.00;;;;5114982;28;20178;-70
2022/05/06 00:03:03;;;;;;;0.40;0.40;;;11.90;99.90;11.70;102425.00;;;;5115061;28;20195;-70
2022/05/06 00:05:37;;;;;;;0.50;0.50;;;11.90;99.90;11.80;102430.00;;;;5098617;28;20178;-70
2022/05/06 00:08:06;;;;;;;1.90;1.77;;;11.90;99.90;12.10;102430.00;;;;5098296;28;20225;-71
2022/05/06 00:10:35;;;;;;;1.03;1.03;;;12.10;99.90;11.80;102424.00;;;;5114543;28;20248;-71
2022/05/06 00:13:01;;;;;;;1.47;1.47;;;12.00;99.90;11.80;102430.00;;;;5115025;28;20215;-72
2022/05/06 00:15:34;;;;;;;4.53;2.20;;;11.90;99.90;12.00;102378.00;;;;5098022;28;20234;-72
2022/05/06 00:18:03;;;;;;;0.80;0.80;;;12.00;99.90;11.70;102422.00;;;;5097819;28;20205;-71
2022/05/06 00:20:31;;;;;;;0.97;0.67;;;11.90;99.90;12.10;102421.00;;;;5097793;28;20666;-71
2022/05/06 00:23:00;;;;;;;0.50;0.50;;;12.10;99.90;12.00;102419.00;;;;5097571;28;20727;-71
2022/05/06 00:25:40;;;;;;;1.77;1.63;;;12.00;99.90;11.80;102419.00;;;;5114784;28;20185;-70
2022/05/06 00:28:16;;;;;;;1.20;1.20;;;12.00;99.90;11.90;102417.00;;;;5114644;28;20182;-71
2022/05/06 00:30:48;;;;;;;0.50;0.50;;;12.00;99.90;11.90;102421.00;;;;5097575;28;20185;-71
2022/05/06 00:33:22;;;;;;;0.53;0.53;;;12.00;99.90;11.90;102422.00;;;;5114650;28;20203;-72
2022/05/06 00:35:59;;;;;;;0.50;0.50;;;11.90;99.90;12.00;102418.00;;;;5098539;28;20242;-71
2022/05/06 00:38:26;;;;;;;1.03;1.03;;;12.00;99.90;12.20;102417.00;;;;5114289;28;20177;-71
2022/05/06 00:40:58;;;;;;;1.53;1.53;;;12.00;99.90;12.10;102411.00;;;;5114531;28;20517;-71
2022/05/06 00:43:31;;;;;;;1.90;1.43;;;12.10;99.90;12.30;102410.00;;;;5114338;28;20616;-70
2022/05/06 00:46:03;;;;;;;2.10;2.00;;;12.20;99.90;12.10;102406.00;;;;5115033;27;20597;-71
2022/05/06 00:48:41;;;;;;;0.60;0.60;;;12.20;99.90;12.10;102377.00;;;;5114542;28;20206;-71
2022/05/06 00:51:18;;;;;;;0.50;0.50;;;12.20;99.90;12.00;102414.00;;;;5114201;28;20197;-71
2022/05/06 00:53:56;;;;;;;4.13;1.23;;;12.20;99.90;11.80;102419.00;;;;5114236;28;20186;-72
2022/05/06 00:56:24;;;;;;;3.47;1.43;;;12.20;99.90;12.30;102396.00;;;;5113419;28;20497;-72
2022/05/06 00:58:56;;;;;;;0.50;0.50;;;12.20;99.90;12.00;102410.00;;;;5113817;28;20204;-71
2022/05/06 01:01:29;;;;;;;0.97;0.97;;;12.10;99.90;11.70;102410.00;;;;5113678;28;20224;-71
2022/05/06 01:04:10;;;;;;;0.40;0.40;;;12.00;99.90;12.00;102408.00;;;;5115291;28;20225;-71
2022/05/06 01:06:39;;;;;;;0.50;0.50;;;12.00;99.90;12.00;102407.00;;;;5113599;28;20579;-71
2022/05/06 01:09:15;;;;;;;0.60;0.60;;;12.10;99.90;12.00;102413.00;;;;5113914;28;20168;-71
2022/05/06 01:11:47;;;;;;;2.67;1.10;;;12.00;99.90;11.70;102409.00;;;;5113744;28;20204;-71
2022/05/06 01:14:33;;;;;;;1.27;1.27;;;11.90;99.90;12.00;102413.00;;;;5114055;28;20267;-71
2022/05/06 01:17:09;;;;;;;0.60;0.60;;;12.00;99.90;11.80;102414.00;;;;5114353;28;20203;-71
2022/05/06 01:19:43;;;;;;;0.50;0.50;;;11.90;99.90;12.20;102414.00;;;;5114941;28;20181;-72
2022/05/06 01:22:23;;;;;;;0.57;0.57;;;12.00;99.90;12.20;102416.00;;;;5113492;28;20177;-71
2022/05/06 01:24:55;;;;;;;0.90;0.90;;;12.20;99.90;12.10;102413.00;;;;5113776;28;20594;-71
2022/05/06 01:27:32;;;;;;;1.33;1.33;;;12.10;99.90;12.20;102407.00;;;;5113507;28;20187;-71
2022/05/06 01:30:08;;;;;;;1.57;1.47;;;12.20;99.90;12.20;102404.00;;;;5113654;28;20619;-71
2022/05/06 01:32:42;;;;;;;0.50;0.50;;;12.10;99.90;12.10;102407.00;;;;5129915;27;20209;-70
2022/05/06 01:35:14;;;;;;;0.60;0.60;;;12.10;99.90;11.90;102402.00;;;;5114567;28;20181;-70
2022/05/06 01:37:44;;;;;;;1.37;1.37;;;12.10;99.90;12.20;102417.00;;;;5110438;28;20629;-70
2022/05/06 01:40:14;;;;;;;0.73;0.73;;;12.20;99.90;12.30;102367.00;;;;5076040;28;20186;-71
2022/05/06 01:42:46;;;;;;;2.53;1.80;;;12.20;99.90;11.50;102413.00;;;;5092843;28;20264;-70
2022/05/06 01:45:16;;;;;;;0.50;0.50;;;12.00;99.90;11.70;102385.00;;;;5092844;28;20184;-71
2022/05/06 01:47:53;;;;;;;1.80;1.70;;;11.90;99.90;11.70;102395.00;;;;5092567;28;20176;-70
2022/05/06 01:50:23;;;;;;;0.50;0.50;;;11.90;99.90;12.00;102401.00;;;;5075889;28;20184;-70
2022/05/06 01:53:01;;;;;;;0.80;0.80;;;12.00;99.90;11.60;102378.00;;;;5092554;28;20623;-69
2022/05/06 01:55:35;;;;;;;0.50;0.50;;;11.90;99.90;11.70;102422.00;;;;5092951;28;20627;-69
2022/05/06 01:58:10;;;;;;;0.83;0.83;;;11.80;99.90;11.90;102423.00;;;;5092645;28;20185;-71
2022/05/06 02:00:43;;;;;;;0.57;0.57;;;11.80;99.90;11.80;102424.00;;;;5075988;28;20183;-69
2022/05/06 02:06:06;;;;;;;0.60;0.60;;;11.80;99.90;11.80;102421.00;;;;5092294;28;20364;-70
2022/05/06 02:08:42;;;;;;;2.67;1.47;;;11.90;99.90;10.90;102417.00;;;;5100219;28;20180;-70
2022/05/06 02:11:18;;;;;;;0.70;0.70;;;11.60;99.90;11.50;102411.00;;;;5112719;28;20217;-69
2022/05/06 02:13:52;;;;;;;0.50;0.50;;;11.40;99.90;11.60;102423.00;;;;5113213;27;20183;-69
2022/05/06 02:16:26;;;;;;;0.97;0.83;;;11.70;99.90;11.80;102430.00;;;;5112788;28;20531;-69
2022/05/06 02:18:59;;;;;;;1.87;1.77;;;11.80;99.90;11.60;102425.00;;;;5112566;28;20214;-69
2022/05/06 02:21:34;;;;;;;0.50;0.50;;;11.80;99.90;11.60;102413.00;;;;5096018;28;20182;-69
2022/05/06 02:24:05;;;;;;;0.50;0.50;;;11.80;99.90;11.70;102412.00;;;;5095740;28;20188;-69
2022/05/06 02:26:31;;;;;;;0.50;0.50;;;11.80;99.90;11.60;102412.00;;;;5095850;28;20284;-70
2022/05/06 02:29:03;;;;;;;0.50;0.50;;;11.80;99.90;11.50;102416.00;;;;5112458;28;20604;-70
2022/05/06 02:34:20;;;;;;;0.60;0.60;;;11.70;99.90;11.60;102416.00;;;;5112443;28;20190;-70
2022/05/06 02:36:51;;;;;;;1.80;1.50;;;11.80;99.90;11.30;102415.00;;;;5113889;28;20169;-69
2022/05/06 02:39:17;;;;;;;2.23;1.70;;;11.70;99.90;11.20;102398.00;;;;5113459;28;20175;-70
2022/05/06 02:41:48;;;;;;;0.50;0.50;;;11.50;99.90;11.10;102412.00;;;;5095623;28;20268;-71
2022/05/06 02:44:17;;;;;;;8.90;3.57;;;11.40;99.90;11.10;102425.00;;;;5112176;28;20703;-71
2022/05/06 02:46:43;;;;;;;0.97;0.97;;;11.40;99.90;11.20;102391.00;;;;5112393;28;20183;-72
2022/05/06 02:49:12;;;;;;;0.60;0.60;;;11.40;99.90;11.20;102424.00;;;;5095457;28;20285;-71
2022/05/06 02:51:49;;;;;;;1.57;1.50;;;11.50;99.90;10.60;102422.00;;;;5113613;28;20207;-71
2022/05/06 02:54:23;;;;;;;0.50;0.50;;;11.30;99.90;11.00;102418.00;;;;5112450;28;20180;-72
2022/05/06 02:57:02;;;;;;;3.63;3.27;;;11.30;99.90;10.60;102420.00;;;;5112320;28;20260;-72
2022/05/06 02:59:39;;;;;;;0.47;0.47;;;11.20;99.90;11.00;102423.00;;;;5112270;28;20177;-72
2022/05/06 03:02:13;;;;;;;3.00;2.80;;;11.20;99.90;11.70;102428.00;;;;5095315;28;20180;-71
2022/05/06 03:04:49;;;;;;;2.20;1.10;;;11.60;99.90;11.50;102424.00;;;;5095321;28;20187;-71
2022/05/06 03:07:26;;;;;;;0.50;0.50;;;11.60;99.90;11.70;102412.00;;;;5112248;28;20177;-71
2022/05/06 03:10:03;;;;;;;0.97;0.97;;;11.70;99.90;11.90;102421.00;;;;5096195;28;20185;-71
2022/05/06 03:12:35;;;;;;;2.87;2.63;;;11.80;99.90;11.60;102413.00;;;;5092050;28;20203;-71
2022/05/06 03:15:07;;;;;;;0.50;0.50;;;11.70;99.90;11.60;102424.00;;;;5093100;28;20208;-71
2022/05/06 03:17:34;;;;;;;0.50;0.50;;;11.70;99.90;11.50;102430.00;;;;5091656;28;20174;-70
2022/05/06 03:20:07;;;;;;;0.80;0.80;;;11.70;99.90;11.70;102426.00;;;;5095315;28;20260;-70
2022/05/06 03:22:50;;;;;;;1.27;1.27;;;11.80;99.90;11.70;102413.00;;;;5096880;28;20165;-70
2022/05/06 03:25:24;;;;;;;0.90;0.90;;;11.80;99.90;11.70;102360.00;;;;5096043;28;20159;-70
2022/05/06 03:28:07;;;;;;;2.17;2.00;;;11.80;99.90;11.50;102420.00;;;;5096868;28;20172;-70
2022/05/06 03:30:44;;;;;;;0.57;0.57;;;11.80;99.90;11.90;102408.00;;;;5080233;28;20176;-72
2022/05/06 03:33:19;;;;;;;1.27;1.27;;;11.90;99.90;11.90;102410.00;;;;5095300;28;20222;-71
2022/05/06 03:35:50;;;;;;;0.60;0.60;;;11.90;99.90;12.20;102408.00;;;;5095146;28;20172;-71
2022/05/06 03:38:21;;;;;;;0.60;0.60;;;12.10;99.90;12.30;102373.00;;;;5078970;28;20179;-70
2022/05/06 03:40:52;;;;;;;1.13;1.13;;;12.20;99.90;11.70;102415.00;;;;5115833;28;20210;-71
2022/05/06 03:43:27;;;;;;;0.50;0.50;;;12.00;99.90;11.60;102421.00;;;;5098413;28;20175;-71
2022/05/06 03:45:55;;;;;;;0.50;0.50;;;11.80;99.90;11.60;102410.00;;;;5099032;28;20240;-71
2022/05/06 03:48:32;;;;;;;5.93;4.13;;;11.80;99.90;11.70;102415.00;;;;5115296;28;20198;-71
2022/05/06 03:51:22;;;;;;;1.67;1.67;;;11.80;99.90;11.90;102419.00;;;;5115730;27;20175;-71
2022/05/06 03:53:59;;;;;;;0.70;0.70;;;11.80;99.90;11.80;102411.00;;;;5132750;27;20257;-71
2022/05/06 03:56:33;;;;;;;3.00;2.73;;;11.80;99.90;11.70;102414.00;;;;5115612;28;20192;-71
2022/05/06 03:59:04;;;;;;;1.77;1.60;;;11.80;99.90;11.70;102413.00;;;;5115311;28;20179;-71
2022/05/06 04:01:38;;;;;;;0.73;0.73;;;11.90;99.90;11.30;102422.00;;;;5097654;28;20217;-71
2022/05/06 04:04:05;;;;;;;0.57;0.57;;;11.90;99.90;11.40;102382.00;;;;5132521;27;20265;-71
2022/05/06 04:06:31;;;;;;;0.63;0.63;;;11.70;99.90;11.70;102425.00;;;;5115092;28;20183;-71
2022/05/06 04:08:59;;;;;;;0.90;0.90;;;11.80;99.90;11.70;102418.00;;;;5092934;28;20279;-71
2022/05/06 04:11:33;;;;;;;1.43;1.33;;;11.80;99.90;11.30;102424.00;;;;5090604;28;20205;-71
2022/05/06 04:13:59;;;;;;;0.60;0.60;;;11.50;99.90;11.50;102414.00;;;;5114947;28;20635;-72
2022/05/06 04:16:28;;;;;;;0.60;0.60;;;11.50;99.90;11.80;102413.00;;;;5097557;28;20177;-72
2022/05/06 04:19:13;;;;;;;2.17;2.07;;;11.70;99.90;11.80;102412.00;;;;5098020;28;20185;-71
2022/05/06 04:24:35;;;;;;;0.60;0.60;;;11.70;99.90;11.00;102427.00;;;;5115096;28;20324;-72
2022/05/06 04:27:06;;;;;;;0.60;0.60;;;11.40;99.90;11.60;102422.00;;;;5114812;28;20179;-71
2022/05/06 04:29:37;;;;;;;1.80;1.70;;;11.60;99.90;11.50;102408.00;;;;5115843;28;20181;-71
2022/05/06 04:32:03;;;;;;;1.23;1.23;;;11.60;99.90;11.80;102422.00;;;;5115536;28;20218;-72
2022/05/06 04:34:37;;;;;;;0.70;0.70;;;11.70;99.90;12.10;102400.00;;;;5114550;28;20774;-71
2022/05/06 04:37:10;;;;;;;1.23;1.23;;;11.90;99.90;11.40;102383.00;;;;5115410;28;20647;-72
2022/05/06 04:39:36;;;;;;;0.60;0.60;;;11.70;99.90;11.50;102417.00;;;;5094144;28;20187;-72
2022/05/06 04:42:07;;;;;;;0.50;0.50;;;11.70;99.90;11.90;102428.00;;;;5077061;28;20428;-71
2022/05/06 04:44:56;;;;;;;1.17;1.17;;;11.80;99.90;12.10;102418.00;;;;5076944;28;20181;-71
2022/05/06 04:47:27;;;;;;;2.17;2.07;;;12.00;99.90;12.30;102409.00;;;;5093832;28;20180;-71
2022/05/06 04:50:01;;;;;;;0.60;0.60;;;12.20;99.90;12.10;102374.00;;;;5093801;28;20177;-71
2022/05/06 04:52:29;;;;;;;0.60;0.60;;;12.10;99.90;12.00;102429.00;;;;5093708;28;20614;-71
2022/05/06 04:54:58;;;;;;;0.70;0.70;;;12.00;99.90;11.90;102427.00;;;;5077264;28;20763;-71
2022/05/06 04:57:32;;;;;;;0.70;0.70;;;12.00;99.90;12.10;102384.00;;;;5076974;28;20285;-72
2022/05/06 05:00:03;;;;;;;2.10;2.03;;;12.10;99.90;11.90;102429.00;;;;5093418;28;20617;-71
2022/05/06 05:02:39;;;;;;;2.50;2.40;;;12.00;99.90;10.70;102429.00;;;;5076633;28;20245;-72
2022/05/06 05:05:13;;;;;;;4.73;3.03;;;11.50;99.90;9.90;102396.00;;;;5094820;28;20190;-72
2022/05/06 05:07:47;;;;;;;0.60;0.60;;;10.80;99.90;10.90;102431.00;;;;5076429;28;20183;-72
2022/05/06 05:10:16;;;;;;;5.40;5.03;;;11.00;99.90;11.20;102426.00;;;;5105327;28;20172;-72
2022/05/06 05:12:45;;;;;;;0.50;0.50;;;11.20;99.90;10.30;102419.00;;;;5114661;28;20293;-72
2022/05/06 05:15:22;;;;;;;0.50;0.50;;;10.90;99.90;10.90;102436.00;;;;5113931;28;20209;-72
2022/05/06 05:17:50;;;;;;;1.23;1.23;;;11.00;99.90;10.50;102452.00;;;;5130927;27;20187;-71
2022/05/06 05:20:22;;;;;;;0.50;0.50;;;11.00;99.90;11.30;102446.00;;;;5096550;28;20645;-71
2022/05/06 05:22:52;;;;;;;1.33;1.33;;;11.30;99.90;11.60;102454.00;;;;5113478;28;20197;-71
2022/05/06 05:25:24;;;;;;;2.80;2.70;;;11.50;99.90;11.60;102454.00;;;;5114175;28;20178;-71
2022/05/06 05:27:56;;;;;;;0.60;0.60;;;11.60;99.90;11.10;102403.00;;;;5113138;28;20200;-72
2022/05/06 05:30:30;;;;;;;2.70;1.37;;;11.50;99.90;10.20;102448.00;;;;5113635;28;20187;-71
2022/05/06 05:33:02;;;;;;;0.60;0.60;;;11.00;99.90;10.80;102448.00;;;;5113015;28;20211;-70
2022/05/06 05:35:31;;;;;;;0.50;0.50;;;11.10;99.90;10.90;102460.00;;;;5113769;28;20245;-72
2022/05/06 05:37:57;;;;;;;1.13;1.13;;;11.10;99.90;11.30;102453.00;;;;5096283;28;20641;-71
2022/05/06 05:40:29;;;;;;;0.60;0.60;;;11.30;99.90;11.20;102464.00;;;;5096062;28;20266;-72
2022/05/06 05:42:59;;;;;;;0.60;0.60;;;11.30;99.90;11.50;102461.00;;;;5095752;28;20183;-71
2022/05/06 05:48:21;;;;;;;0.60;0.60;;;11.80;99.90;12.00;102416.00;;;;5113229;28;20275;-72
2022/05/06 05:50:50;;;;;;;0.60;0.60;;;12.00;99.90;12.20;102455.00;;;;5113418;28;20181;-71
2022/05/06 05:53:23;;;;;;;0.70;0.70;;;12.10;99.90;12.30;102457.00;;;;5113159;28;20186;-71
2022/05/06 05:55:49;;;;;;;1.33;1.23;;;12.30;99.90;12.50;102404.00;;;;5113136;28;20584;-70
2022/05/06 05:58:15;;;;;;;1.73;1.73;;;12.40;99.90;12.40;102441.00;;;;5112831;28;20179;-72
2022/05/06 06:00:41;;;;;;;0.70;0.70;;;12.50;99.90;12.50;102454.00;;;;5095931;28;20223;-72
2022/05/06 06:03:07;;;;;;;1.53;1.53;;;12.40;99.90;12.90;102460.00;;;;5095781;28;20196;-72
2022/05/06 06:05:35;;;;;;;0.70;0.70;;;12.70;99.90;12.80;102447.00;;;;5095992;28;20194;-73
2022/05/06 06:08:01;;;;;;;0.80;0.80;;;12.80;99.90;12.70;102456.00;;;;5095596;28;20183;-71
2022/05/06 06:10:28;;;;;;;2.13;2.03;;;12.70;99.90;11.60;102448.00;;;;5101617;28;20190;-70
2022/05/06 06:12:57;;;;;;;2.30;1.53;;;12.40;99.90;10.80;102453.00;;;;5092390;28;20682;-73
2022/05/06 06:15:23;;;;;;;0.50;0.50;;;11.60;99.90;11.50;102465.00;;;;5092794;28;20177;-72
2022/05/06 06:17:54;;;;;;;2.30;2.10;;;11.70;99.90;10.90;102481.00;;;;5092413;28;20183;-70
2022/05/06 06:20:23;;;;;;;1.23;1.23;;;11.40;99.90;11.70;102467.00;;;;5075781;28;20211;-71
2022/05/06 06:22:55;;;;;;;0.60;0.60;;;11.70;99.90;12.00;102474.00;;;;5092494;28;20243;-70
2022/05/06 06:25:21;;;;;;;0.93;0.93;;;11.80;99.90;12.30;102476.00;;;;5092256;28;20226;-75
2022/05/06 06:27:55;;;;;;;0.80;0.80;;;12.20;99.90;12.40;102437.00;;;;5075031;28;20180;-73
2022/05/06 06:30:24;;;;;;;1.27;1.27;;;12.30;99.90;12.70;102441.00;;;;5092289;28;20219;-74
2022/05/06 06:32:55;;;;;;;4.53;4.30;;;12.60;99.90;12.70;102485.00;;;;5092114;28;20212;-71
2022/05/06 06:35:27;;;;;;;7.40;4.57;;;12.70;99.90;12.30;102483.00;;;;5092097;28;20185;-71
2022/05/06 06:37:53;;;;;;;2.83;2.50;;;12.60;99.90;11.10;102480.00;;;;5092056;28;20533;-72
2022/05/06 06:40:19;;;;;;;4.77;4.47;;;12.00;99.90;10.80;102498.00;;;;5091730;28;20184;-70
2022/05/06 06:42:47;;;;;;;0.40;0.40;;;11.50;99.90;11.60;102496.00;;;;5075602;28;20189;-71
2022/05/06 06:45:13;;;;;;;0.50;0.50;;;11.70;99.90;11.90;102453.00;;;;5093157;28;20230;-72
2022/05/06 06:47:43;;;;;;;1.57;1.57;;;12.10;99.90;12.70;102498.00;;;;5092220;28;20566;-71
2022/05/06 06:50:09;;;;;;;0.50;0.50;;;12.40;99.90;12.90;102500.00;;;;5091852;28;20173;-71
2022/05/06 06:52:35;;;;;;;2.07;1.37;;;12.80;99.90;12.50;102456.00;;;;5075054;28;20201;-71
2022/05/06 06:55:02;;;;;;;0.60;0.60;;;12.80;99.90;12.70;102469.00;;;;5096191;28;20169;-71
2022/05/06 06:58:22;;;;;;;0.60;0.60;;;12.70;99.90;13.10;102518.00;;;;5096228;28;20177;-71
2022/05/06 07:00:49;;;;;;;8.73;5.07;;;13.10;99.90;12.40;102515.00;;;;5095780;28;20181;-72
2022/05/06 07:12:22;;;;;;;2.00;1.90;;;12.80;99.90;13.40;102510.00;;;;5097080;28;20262;-71
2022/05/06 07:14:58;;;;;;;1.10;1.10;;;13.20;99.90;13.10;102459.00;;;;5095933;28;20177;-72
2022/05/06 07:17:24;;;;;;;1.80;1.70;;;13.40;99.90;13.50;102504.00;;;;5095879;28;20178;-71
2022/05/06 07:19:50;;;;;;;0.70;0.70;;;13.50;99.90;13.90;102497.00;;;;5078120;28;20235;-72
2022/05/06 07:22:19;;;;;;;0.80;0.80;;;13.80;99.90;14.20;102488.00;;;;5078665;28;20187;-71
2022/05/06 07:24:48;;;;;;;0.80;0.80;;;14.10;99.90;14.00;102496.00;;;;5078716;28;20248;-71
2022/05/06 07:27:14;;;;;;;3.90;2.97;;;14.10;99.90;14.50;102490.00;;;;5095498;28;20262;-72
2022/05/06 07:29:40;;;;;;;4.13;3.93;;;14.40;99.90;14.50;102489.00;;;;5078481;28;20259;-72
2022/05/06 07:32:07;;;;;;;1.57;1.50;;;14.50;99.90;14.70;102460.00;;;;5077554;28;20319;-73
2022/05/06 07:34:33;;;;;;;5.07;4.77;;;14.80;99.90;15.10;102490.00;;;;5078682;28;20266;-72
2022/05/06 07:36:58;;;;;;;1.63;1.53;;;15.10;99.90;16.40;102478.00;;;;5077212;28;20271;-71
2022/05/06 07:39:24;;;;;;;1.13;1.13;;;16.00;99.90;17.30;102472.00;;;;5077710;28;20205;-72
2022/05/06 07:41:50;;;;;;;0.77;0.77;;;17.10;99.90;17.70;102472.00;;;;5077344;28;20208;-72
2022/05/06 07:44:16;;;;;;;0.40;0.40;;;17.60;99.90;17.70;102446.00;;;;5077905;28;20247;-72
2022/05/06 07:46:42;;;;;;;0.47;0.47;;;17.80;99.90;17.00;102440.00;;;;5094608;28;20175;-72
2022/05/06 07:49:08;;;;;;;1.30;1.30;;;17.70;99.90;16.40;102443.00;;;;5078204;28;20699;-73
2022/05/06 07:51:34;;;;;;;0.77;0.77;;;17.00;99.90;17.70;102448.00;;;;5094638;28;20184;-73
2022/05/06 07:54:02;;;;;;;1.38;1.38;;;17.40;99.90;18.60;102425.00;;;;5077535;28;20176;-72
2022/05/06 07:56:30;;;;;;;4.15;1.63;;;18.80;99.90;18.60;102449.00;;;;5105849;28;20184;-71
2022/05/06 07:59:21;;;;;;;0.57;0.57;;;18.60;99.90;19.80;102466.00;;;;5111724;28;20223;-72
2022/05/06 08:05:44;;;;;;;2.13;2.03;;;21.20;99.90;20.10;102463.00;;;;5115000;28;20195;-73
2022/05/06 08:08:07;;;;;;;0.15;0.15;;;20.70;99.90;20.40;102543.00;;;;5113468;28;20195;-73
2022/05/06 08:10:33;;;;;;;0.17;0.17;;;21.00;99.90;22.00;102542.00;;;;5114876;28;20724;-73
2022/05/06 08:13:02;;;;;;;3.65;2.75;;;21.30;99.90;23.90;102575.00;;;;5114767;28;20267;-74
2022/05/06 08:15:28;;;;;;;1.95;1.70;;;22.90;99.90;22.40;102585.00;;;;5114991;28;20164;-72
2022/05/06 08:17:56;;;;;;;0.65;0.65;;;22.70;99.90;22.30;102574.00;;;;5115842;28;20165;-73
2022/05/06 08:20:26;;;;;;;2.50;1.95;;;22.50;99.90;22.50;102556.00;;;;5097826;28;20184;-74
2022/05/06 08:22:53;;;;;;;0.10;0.10;;;23.00;99.90;24.10;102586.00;;;;5114389;28;20342;-74
2022/05/06 08:25:18;;;;;;;1.20;1.08;;;23.60;99.90;19.10;102532.00;;;;5114845;28;20213;-79
2022/05/06 08:27:46;;;;;;;8.73;2.70;;;20.50;99.90;16.70;102481.00;;;;5097477;28;20188;-79
2022/05/06 08:30:13;;;;;;;1.33;1.23;;;18.50;99.90;16.60;102449.00;;;;5114860;28;20221;-79
2022/05/06 08:32:40;;;;;;;1.38;1.27;;;17.60;99.90;18.90;102499.00;;;;5097326;28;20195;-79
2022/05/06 08:35:08;;;;;;;0.68;0.68;;;18.90;99.90;21.60;102541.00;;;;5114612;28;20168;-78
2022/05/06 08:37:45;;;;;;;0.63;0.63;;;20.40;99.90;23.10;102579.00;;;;5114077;28;20623;-79
2022/05/06 08:40:31;;;;;;;0.80;0.80;;;22.10;99.90;25.10;102554.00;;;;5115866;28;20170;-78
2022/05/06 08:43:06;;;;;;;0.10;0.10;;;23.90;99.90;25.40;102589.00;;;;5114046;28;20212;-78
2022/05/06 08:51:05;;;;;;;0.10;0.10;;;21.00;99.90;23.60;102568.00;;;;5114297;28;20211;-71
2022/05/06 08:53:39;;;;;;;6.72;4.70;;;22.30;99.90;25.20;102576.00;;;;5114612;28;20176;-72
2022/05/06 08:56:06;;;;;;;0.10;0.10;;;23.90;99.90;25.40;102609.00;;;;5106913;28;20173;-72
2022/05/06 08:58:37;;;;;;;1.30;1.25;;;24.70;99.90;25.90;102610.00;;;;5093466;28;20173;-71
2022/05/06 09:01:13;;;;;;;0.70;0.70;;;25.20;99.90;25.50;102608.00;;;;5093543;28;20173;-71
2022/05/06 09:03:41;;;;;;;0.10;0.10;;;25.50;99.90;26.70;102597.00;;;;5076476;28;20195;-71
2022/05/06 09:06:29;;;;;;;0.10;0.10;;;26.00;99.90;24.10;102598.00;;;;5094412;28;20690;-71
2022/05/06 09:09:26;;;;;;;0.10;0.10;;;25.40;99.90;24.90;102604.00;;;;5076839;28;20234;-71
2022/05/06 09:17:56;;;;;;;0.10;0.10;;;23.20;99.90;25.30;102599.00;;;;5113480;28;20194;-71
2022/05/06 09:20:27;;;;;;;0.95;0.95;;;24.30;99.90;23.20;102600.00;;;;5114606;28;20205;-71
2022/05/06 09:23:17;;;;;;;0.25;0.25;;;23.50;99.90;24.80;102612.00;;;;5113666;28;20187;-71
2022/05/06 09:25:49;;;;;;;0.65;0.65;;;24.10;99.90;25.30;102574.00;;;;5111470;28;20188;-71
2022/05/06 09:28:22;;;;;;;0.73;0.73;;;24.80;99.90;24.50;102616.00;;;;5093157;28;20253;-70
2022/05/06 09:31:06;;;;;;;3.13;2.85;;;24.70;99.90;25.00;102620.00;;;;5093147;28;20180;-71
2022/05/06 09:33:42;;;;;;;0.65;0.38;;;24.80;99.90;25.40;102613.00;;;;5092777;28;20546;-71
2022/05/06 09:36:29;;;;;;;0.20;0.20;;;25.00;99.90;26.40;102618.00;;;;5092692;28;20183;-71
2022/05/06 09:39:10;;;;;;;0.17;0.17;;;25.50;99.90;26.60;102626.00;;;;5092434;28;20157;-71
2022/05/06 09:41:40;;;;;;;0.45;0.45;;;26.00;99.90;24.60;102628.00;;;;5093014;28;20287;-71
2022/05/06 09:44:09;;;;;;;0.10;0.10;;;25.00;99.90;24.50;102587.00;;;;5075673;28;20689;-70
2022/05/06 09:46:36;;;;;;;0.38;0.38;;;24.90;99.90;24.80;102580.00;;;;5092500;28;20162;-71
2022/05/06 09:49:04;;;;;;;0.10;0.10;;;24.50;99.90;26.20;102614.00;;;;5091901;28;20621;-71
2022/05/06 09:51:35;;;;;;;1.20;0.68;;;25.40;99.90;21.80;102559.00;;;;5091841;28;20204;-70
2022/05/06 09:54:06;;;;;;;2.25;2.05;;;23.00;99.90;23.90;102612.00;;;;5093798;28;20165;-70
2022/05/06 09:56:33;;;;;;;0.20;0.20;;;23.50;99.90;24.50;102612.00;;;;5093355;28;20184;-71
2022/05/06 09:59:02;;;;;;;3.97;2.63;;;24.00;99.90;20.80;102581.00;;;;5092244;28;20283;-70
2022/05/06 10:01:28;;;;;;;6.97;6.40;;;22.30;99.90;19.80;102563.00;;;;5092306;28;20753;-70
2022/05/06 10:03:54;;;;;;;0.10;0.10;;;20.80;99.90;21.40;102570.00;;;;5091969;28;20260;-70
2022/05/06 10:06:25;;;;;;;2.88;1.60;;;21.00;99.90;22.60;102583.00;;;;5075124;28;20199;-70
2022/05/06 10:08:57;;;;;;;0.68;0.68;;;21.70;99.90;22.00;102576.00;;;;5091634;28;20193;-70
2022/05/06 10:11:29;;;;;;;0.10;0.10;;;22.20;99.90;22.60;102546.00;;;;5075714;28;20181;-70
2022/05/06 10:14:01;;;;;;;0.55;0.55;;;22.40;99.90;23.50;102583.00;;;;5075870;28;20180;-70
2022/05/06 10:16:35;;;;;;;1.35;0.68;;;23.10;99.90;23.00;102572.00;;;;5092565;28;20157;-70
2022/05/06 10:19:04;;;;;;;0.65;0.65;;;23.10;99.90;24.20;102579.00;;;;5091905;28;20181;-66
2022/05/06 10:33:10;;;;;;;2.95;2.30;;;22.70;99.90;22.30;102560.00;;;;5070169;28;20563;-71
2022/05/06 10:35:47;;;;;;;0.70;0.70;;;22.60;99.90;22.90;102545.00;;;;5050488;28;20186;-72
2022/05/06 10:38:25;;;;;;;0.10;0.10;;;22.60;99.90;24.60;102586.00;;;;5045460;28;20182;-72
2022/05/06 10:41:02;;;;;;;0.85;0.85;;;23.70;99.90;22.40;102579.00;;;;5046250;28;20665;-72
2022/05/06 10:43:40;;;;;;;1.30;1.13;;;23.70;99.90;21.70;102570.00;;;;5045632;28;20178;-72
2022/05/06 10:46:09;;;;;;;0.40;0.40;;;22.20;99.90;23.90;102582.00;;;;5030156;28;20649;-72
2022/05/06 10:48:36;;;;;;;0.68;0.68;;;23.10;99.90;23.70;102548.00;;;;5061744;28;20167;-72
2022/05/06 10:51:24;;;;;;;1.65;0.90;;;23.60;99.90;22.10;102572.00;;;;5065647;28;20562;-72
2022/05/06 10:53:51;;;;;;;0.38;0.25;;;23.20;99.90;22.80;102566.00;;;;5050034;28;20176;-70
2022/05/06 10:56:17;;;;;;;3.50;2.22;;;23.20;99.90;20.90;102542.00;;;;5065225;28;20193;-70
2022/05/06 10:58:43;;;;;;;0.73;0.73;;;22.30;99.90;22.90;102554.00;;;;5065311;28;20181;-70
2022/05/06 11:01:16;;;;;;;0.35;0.35;;;22.70;99.90;21.00;102538.00;;;;5065152;28;20190;-68
2022/05/06 11:03:54;;;;;;;1.23;1.23;;;22.20;99.90;23.10;102531.00;;;;5048984;28;20186;-68
2022/05/06 11:06:27;;;;;;;1.30;1.20;;;22.50;99.90;23.30;102560.00;;;;5065348;28;20229;-68
2022/05/06 11:08:53;;;;;;;0.10;0.10;;;23.30;99.90;23.00;102560.00;;;;5048774;28;20206;-69
2022/05/06 11:11:26;;;;;;;0.20;0.20;;;23.10;99.90;24.00;102562.00;;;;5065256;28;20198;-68
2022/05/06 11:13:53;;;;;;;0.20;0.15;;;23.60;99.90;24.40;102550.00;;;;5065750;28;20179;-69
2022/05/06 11:16:26;;;;;;;1.80;1.70;;;24.50;99.90;23.30;102559.00;;;;5064653;28;20282;-69
2022/05/06 11:19:02;;;;;;;0.63;0.63;;;24.00;99.90;25.00;102555.00;;;;5064845;28;20262;-69
2022/05/06 11:21:31;;;;;;;3.10;2.90;;;24.60;99.90;25.40;102559.00;;;;5049559;28;20182;-69
2022/05/06 11:24:00;;;;;;;8.18;4.47;;;25.30;99.90;24.40;102562.00;;;;5065165;28;20183;-69
2022/05/06 11:26:29;;;;;;;6.32;1.13;;;25.10;99.90;22.20;102550.00;;;;5064420;28;20171;-69
2022/05/06 11:29:05;;;;;;;5.57;2.83;;;23.90;99.90;21.10;102551.00;;;;5064767;28;20183;-69
2022/05/06 11:31:34;;;;;;;7.78;4.22;;;22.30;99.90;20.50;102519.00;;;;5047273;28;20594;-69
2022/05/06 11:34:07;;;;;;;0.10;0.10;;;21.00;99.90;23.50;102552.00;;;;5048723;28;20265;-70
2022/05/06 11:36:36;;;;;;;0.10;0.10;;;22.60;99.90;25.40;102552.00;;;;5064431;28;20179;-69
2022/05/06 11:39:12;;;;;;;2.55;2.35;;;24.30;99.90;24.40;102523.00;;;;5064865;28;20183;-69
2022/05/06 11:41:40;;;;;;;0.95;0.95;;;24.50;99.90;24.70;102541.00;;;;5049763;28;20170;-69
2022/05/06 11:47:26;;;;;;;4.50;2.40;;;24.70;99.90;24.30;102539.00;;;;5053531;28;20228;-69
2022/05/06 11:49:48;;;;;;;0.17;0.17;;;24.40;99.90;25.70;102544.00;;;;5048826;28;20166;-69
2022/05/06 11:52:22;;;;;;;1.42;0.43;;;25.00;99.90;25.60;102529.00;;;;5051374;28;20191;-69
2022/05/06 11:54:48;;;;;;;3.60;3.15;;;25.40;99.90;26.00;102516.00;;;;5050258;28;20657;-70
2022/05/06 11:57:16;;;;;;;2.30;1.92;;;25.60;99.90;23.70;102550.00;;;;5035286;28;20182;-69